createdAt,value
2023-02-19T00:02:23.669Z,9.35
2023-02-19T00:05:25.520Z,9.32
2023-02-19T00:08:29.009Z,9.30
2023-02-19T00:11:33.563Z,9.25
2023-02-19T00:14:37.924Z,9.27
2023-02-19T00:17:39.809Z,9.21
2023-02-19T00:20:41.805Z,9.17
2023-02-19T00:23:44.042Z,9.03
2023-02-19T00:26:46.314Z,9.02
2023-02-19T00:29:48.251Z,8.88
2023-02-19T00:32:51.405Z,8.92
2023-02-19T00:35:53.306Z,9.02
2023-02-19T00:38:55.353Z,9.08
2023-02-19T00:41:57.286Z,9.13
2023-02-19T00:44:59.237Z,9.05
2023-02-19T00:48:01.142Z,8.99
2023-02-19T00:51:03.492Z,9.00
2023-02-19T00:54:06.372Z,8.98
2023-02-19T00:57:08.334Z,8.94
2023-02-19T01:00:11.170Z,9.12
2023-02-19T01:03:13.635Z,9.12
2023-02-19T01:06:19.577Z,9.08
2023-02-19T01:09:21.632Z,9.02
2023-02-19T01:12:25.742Z,9.03
2023-02-19T01:15:27.648Z,9.06
2023-02-19T01:18:30.372Z,9.03
2023-02-19T01:21:32.519Z,8.99
2023-02-19T01:24:34.500Z,8.95
2023-02-19T01:27:36.365Z,8.94
2023-02-19T01:30:39.475Z,8.94
2023-02-19T01:33:45.921Z,8.91
2023-02-19T01:36:47.840Z,8.92
2023-02-19T01:39:49.897Z,8.93
2023-02-19T01:42:51.826Z,8.89
2023-02-19T01:45:54.291Z,8.84
2023-02-19T01:49:04.575Z,8.80
2023-02-19T01:52:18.521Z,8.28
2023-02-19T01:55:21.146Z,8.09
2023-02-19T01:58:26.427Z,7.40
2023-02-19T02:01:28.430Z,7.11
2023-02-19T02:04:32.021Z,7.02
2023-02-19T02:07:52.475Z,7.19
2023-02-19T02:10:55.743Z,7.29
2023-02-19T02:13:58.713Z,7.40
2023-02-19T02:17:26.593Z,7.33
2023-02-19T02:20:34.991Z,7.14
2023-02-19T02:23:52.305Z,7.22
2023-02-19T02:27:12.062Z,7.29
2023-02-19T02:30:23.995Z,7.18
2023-02-19T02:33:44.517Z,7.16
2023-02-19T02:36:51.705Z,7.23
2023-02-19T02:39:55.083Z,7.14
2023-02-19T02:42:58.731Z,7.08
2023-02-19T02:47:06.062Z,7.20
2023-02-19T03:05:39.639Z,7.05
2023-02-19T03:09:09.762Z,7.18
2023-02-19T03:12:36.813Z,7.14
2023-02-19T03:16:04.655Z,7.11
2023-02-19T03:19:19.303Z,7.25
2023-02-19T03:22:33.017Z,7.46
2023-02-19T03:25:56.549Z,7.52
2023-02-19T03:29:26.203Z,7.75
2023-02-19T03:32:50.898Z,7.86
2023-02-19T03:35:58.564Z,7.91
2023-02-19T03:39:08.058Z,8.03
2023-02-19T03:42:50.774Z,8.02
2023-02-19T03:46:06.672Z,8.22
2023-02-19T03:49:40.410Z,8.26
2023-02-19T03:53:27.857Z,8.24
2023-02-19T03:56:39.023Z,8.17
2023-02-19T03:59:53.839Z,8.27
2023-02-19T04:03:14.215Z,8.28
2023-02-19T04:06:37.363Z,8.25
2023-02-19T04:09:48.864Z,8.30
2023-02-19T04:12:59.879Z,8.33
2023-02-19T04:16:07.415Z,8.37
2023-02-19T04:19:13.477Z,8.35
2023-02-19T04:22:17.283Z,8.40
2023-02-19T04:25:20.316Z,8.42
2023-02-19T04:28:22.394Z,8.45
2023-02-19T04:31:26.788Z,8.46
2023-02-19T04:34:28.751Z,8.39
2023-02-19T04:37:30.598Z,8.40
2023-02-19T04:40:35.031Z,8.42
2023-02-19T04:43:36.945Z,8.74
2023-02-19T04:46:43.059Z,8.79
2023-02-19T04:49:45.752Z,9.08
2023-02-19T04:52:47.695Z,9.28
2023-02-19T04:55:53.159Z,9.46
2023-02-19T04:58:57.898Z,9.38
2023-02-19T05:01:59.811Z,9.21
2023-02-19T05:05:01.673Z,9.12
2023-02-19T05:08:03.654Z,8.94
2023-02-19T05:11:08.272Z,8.86
2023-02-19T05:14:10.315Z,8.81
2023-02-19T05:17:12.186Z,8.84
2023-02-19T05:20:14.199Z,8.81
2023-02-19T05:23:16.115Z,8.87
2023-02-19T05:26:21.276Z,8.96
2023-02-19T05:29:23.507Z,8.99
2023-02-19T05:32:25.562Z,9.06
2023-02-19T05:35:40.874Z,9.12
2023-02-19T05:38:43.146Z,9.17
2023-02-19T05:41:45.115Z,9.19
2023-02-19T05:44:46.978Z,9.35
2023-02-19T05:47:49.174Z,9.41
2023-02-19T05:50:51.534Z,9.41
2023-02-19T05:53:53.940Z,9.39
2023-02-19T05:56:56.648Z,9.53
2023-02-19T05:59:58.569Z,9.61
2023-02-19T06:03:01.745Z,9.63
2023-02-19T06:06:03.889Z,9.70
2023-02-19T06:09:06.715Z,9.63
2023-02-19T06:12:08.639Z,9.70
2023-02-19T06:15:10.527Z,9.73
2023-02-19T06:18:12.491Z,9.71
2023-02-19T06:21:16.639Z,9.67
2023-02-19T06:24:18.706Z,9.65
2023-02-19T06:27:20.763Z,9.57
2023-02-19T06:30:22.784Z,9.58
2023-02-19T06:33:26.189Z,9.53
2023-02-19T06:36:28.039Z,9.58
2023-02-19T06:39:29.932Z,9.56
2023-02-19T06:42:33.152Z,9.53
2023-02-19T06:45:35.418Z,9.55
2023-02-19T06:48:39.339Z,9.52
2023-02-19T06:51:41.998Z,9.52
2023-02-19T06:54:44.025Z,9.51
2023-02-19T06:57:46.197Z,9.53
2023-02-19T07:00:48.530Z,9.60
2023-02-19T07:03:51.086Z,9.63
2023-02-19T07:06:53.008Z,9.66
2023-02-19T07:09:54.867Z,9.68
2023-02-19T07:12:56.815Z,9.75
2023-02-19T07:16:04.571Z,9.81
2023-02-19T07:19:07.223Z,9.89
2023-02-19T07:22:09.178Z,10.11
2023-02-19T07:25:11.141Z,10.24
2023-02-19T07:28:13.149Z,10.36
2023-02-19T07:31:17.146Z,10.42
2023-02-19T07:34:19.354Z,10.52
2023-02-19T07:37:21.454Z,10.52
2023-02-19T07:40:23.328Z,10.58
2023-02-19T07:43:27.480Z,10.64
2023-02-19T07:46:30.191Z,10.72
2023-02-19T07:49:33.232Z,10.74
2023-02-19T07:52:35.150Z,10.71
2023-02-19T07:55:37.068Z,10.81
2023-02-19T07:58:40.243Z,10.85
2023-02-19T08:02:01.055Z,10.90
2023-02-19T08:05:03.609Z,10.95
2023-02-19T08:08:09.981Z,11.05
2023-02-19T08:11:30.328Z,11.08
2023-02-19T08:14:32.711Z,11.21
2023-02-19T08:17:34.590Z,11.20
2023-02-19T08:20:37.286Z,11.30
2023-02-19T08:23:39.892Z,11.36
2023-02-19T08:26:41.835Z,11.35
2023-02-19T08:29:43.754Z,11.19
2023-02-19T08:32:45.682Z,11.05
2023-02-19T08:35:47.943Z,11.04
2023-02-19T08:38:50.002Z,11.11
2023-02-19T08:41:57.525Z,10.92
2023-02-19T08:44:59.567Z,10.88
2023-02-19T08:48:01.422Z,11.02
2023-02-19T08:51:08.331Z,10.97
2023-02-19T08:54:10.391Z,11.02
2023-02-19T08:57:12.360Z,11.31
2023-02-19T09:00:14.729Z,11.61
2023-02-19T09:03:16.788Z,11.74
2023-02-19T09:06:20.835Z,11.75
2023-02-19T09:09:22.780Z,11.62
2023-02-19T09:12:25.430Z,11.51
2023-02-19T09:15:29.592Z,11.51
2023-02-19T09:18:31.965Z,11.47
2023-02-19T09:21:33.882Z,11.61
2023-02-19T09:24:36.201Z,11.83
2023-02-19T09:27:38.101Z,11.83
2023-02-19T09:30:40.409Z,11.87
2023-02-19T09:33:43.926Z,11.90
2023-02-19T09:36:49.065Z,11.89
2023-02-19T09:39:51.019Z,11.82
2023-02-19T09:42:52.958Z,11.95
2023-02-19T09:46:03.228Z,11.92
2023-02-19T09:49:11.235Z,11.98
2023-02-19T09:52:18.912Z,12.01
2023-02-19T09:55:39.622Z,12.23
2023-02-19T09:58:50.898Z,12.63
2023-02-19T10:02:02.907Z,12.83
2023-02-19T10:05:12.846Z,13.23
2023-02-19T10:08:20.031Z,13.48
2023-02-19T10:11:25.479Z,13.69
2023-02-19T10:14:39.274Z,13.42
2023-02-19T10:17:41.181Z,13.16
2023-02-19T10:20:43.778Z,13.07
2023-02-19T10:23:49.184Z,13.09
2023-02-19T10:26:51.400Z,13.08
2023-02-19T10:29:53.338Z,13.35
2023-02-19T10:33:01.478Z,13.55
2023-02-19T10:36:21.061Z,13.43
2023-02-19T10:39:49.637Z,13.51
2023-02-19T10:43:00.974Z,13.78
2023-02-19T10:46:19.062Z,13.80
2023-02-19T10:49:32.091Z,13.75
2023-02-19T10:52:36.231Z,13.70
2023-02-19T10:55:40.790Z,13.40
2023-02-19T10:58:45.027Z,13.18
2023-02-19T11:02:19.446Z,13.08
2023-02-19T11:05:21.731Z,12.97
2023-02-19T11:08:24.495Z,13.00
2023-02-19T11:11:34.711Z,13.09
2023-02-19T11:14:36.887Z,13.19
2023-02-19T11:17:38.996Z,13.23
2023-02-19T11:20:51.357Z,13.22
2023-02-19T11:23:55.125Z,13.33
2023-02-19T11:27:16.953Z,13.34
2023-02-19T11:30:35.338Z,13.27
2023-02-19T11:33:44.627Z,13.26
2023-02-19T11:36:47.462Z,13.10
2023-02-19T11:39:51.525Z,13.18
2023-02-19T11:43:20.830Z,13.13
2023-02-19T11:46:42.803Z,13.21
2023-02-19T11:49:57.891Z,13.36
2023-02-19T11:53:16.658Z,13.53
2023-02-19T11:56:45.845Z,13.44
2023-02-19T11:59:59.819Z,13.61
2023-02-19T12:03:14.824Z,13.74
2023-02-19T12:06:23.933Z,13.79
2023-02-19T12:09:45.567Z,13.81
2023-02-19T12:13:15.210Z,13.64
2023-02-19T12:16:29.331Z,13.76
2023-02-19T12:19:39.544Z,13.65
2023-02-19T12:23:10.735Z,13.56
2023-02-19T12:26:23.933Z,13.52
2023-02-19T12:29:54.932Z,13.55
2023-02-19T12:32:57.013Z,13.57
2023-02-19T12:36:36.103Z,13.58
2023-02-19T12:39:44.194Z,13.51
2023-02-19T12:42:53.163Z,13.70
2023-02-19T12:46:03.258Z,14.20
2023-02-19T12:49:18.127Z,14.38
2023-02-19T12:52:28.330Z,14.30
2023-02-19T12:55:36.232Z,14.41
2023-02-19T12:58:45.050Z,14.20
2023-02-19T13:02:04.858Z,14.27
2023-02-19T13:05:16.094Z,14.27
2023-02-19T13:08:26.547Z,14.10
2023-02-19T13:11:37.497Z,14.06
2023-02-19T13:14:46.544Z,14.45
2023-02-19T13:17:55.983Z,14.73
2023-02-19T13:20:58.852Z,14.84
2023-02-19T13:24:07.428Z,14.72
2023-02-19T13:27:41.362Z,14.72
2023-02-19T13:31:03.974Z,14.28
2023-02-19T13:34:12.183Z,14.27
2023-02-19T13:37:16.234Z,14.07
2023-02-19T13:40:27.187Z,13.97
2023-02-19T13:43:42.888Z,13.92
2023-02-19T13:46:46.890Z,13.85
2023-02-19T13:49:49.149Z,13.81
2023-02-19T13:52:55.010Z,13.93
2023-02-19T13:55:56.974Z,13.95
2023-02-19T13:59:11.128Z,14.10
2023-02-19T14:02:23.507Z,14.11
2023-02-19T14:05:59.899Z,14.24
2023-02-19T14:09:03.292Z,14.22
2023-02-19T14:12:09.581Z,14.13
2023-02-19T14:15:43.851Z,13.90
2023-02-19T14:18:46.996Z,13.06
2023-02-19T14:21:49.670Z,12.61
2023-02-19T14:24:54.124Z,12.80
2023-02-19T14:28:15.125Z,12.97
2023-02-19T14:31:20.489Z,13.09
2023-02-19T14:34:26.413Z,13.30
2023-02-19T14:37:28.374Z,13.21
2023-02-19T14:40:39.571Z,13.03
2023-02-19T14:43:48.667Z,12.95
2023-02-19T14:46:58.570Z,12.75
2023-02-19T14:50:09.629Z,12.64
2023-02-19T14:53:16.582Z,12.55
2023-02-19T14:56:26.077Z,12.50
2023-02-19T14:59:29.940Z,12.47
2023-02-19T15:02:32.915Z,12.45
2023-02-19T15:05:36.813Z,12.34
2023-02-19T15:08:45.239Z,12.29
2023-02-19T15:11:48.429Z,12.26
2023-02-19T15:14:54.885Z,12.25
2023-02-19T15:18:00.463Z,12.15
2023-02-19T15:21:05.694Z,12.11
2023-02-19T15:24:07.990Z,12.16
2023-02-19T15:27:18.937Z,12.12
2023-02-19T15:30:28.396Z,12.05
2023-02-19T15:33:30.752Z,12.10
2023-02-19T15:36:35.132Z,12.13
2023-02-19T15:39:44.015Z,12.05
2023-02-19T15:42:47.845Z,11.95
2023-02-19T15:45:59.807Z,11.86
2023-02-19T15:49:31.089Z,11.77
2023-02-19T15:52:55.047Z,11.57
2023-02-19T15:56:04.929Z,11.52
2023-02-19T15:59:21.398Z,11.42
2023-02-19T16:02:23.767Z,11.39
2023-02-19T16:05:27.913Z,11.38
2023-02-19T16:08:35.251Z,11.28
2023-02-19T16:12:20.336Z,11.13
2023-02-19T16:15:23.129Z,10.88
2023-02-19T16:18:25.106Z,10.75
2023-02-19T16:21:28.320Z,10.69
2023-02-19T16:24:34.589Z,10.76
2023-02-19T16:27:40.162Z,10.54
2023-02-19T16:30:42.956Z,10.17
2023-02-19T16:33:48.472Z,10.20
2023-02-19T16:36:50.604Z,10.29
2023-02-19T16:40:24.120Z,10.50
2023-02-19T16:43:43.584Z,10.45
2023-02-19T16:46:46.063Z,9.99
2023-02-19T16:49:48.223Z,10.05
2023-02-19T16:53:02.071Z,10.26
2023-02-19T16:56:04.438Z,10.44
2023-02-19T16:59:07.643Z,10.76
2023-02-19T17:02:17.785Z,10.85
2023-02-19T17:05:21.401Z,10.74
2023-02-19T17:08:44.231Z,10.65
2023-02-19T17:11:47.869Z,10.70
2023-02-19T17:14:50.876Z,10.31
2023-02-19T17:17:54.235Z,9.55
2023-02-19T17:21:01.539Z,9.81
2023-02-19T17:24:04.422Z,9.66
2023-02-19T17:27:10.814Z,9.55
2023-02-19T17:30:33.921Z,9.14
2023-02-19T17:33:36.413Z,9.31
2023-02-19T17:36:40.491Z,9.18
2023-02-19T17:39:42.605Z,8.92
2023-02-19T17:42:44.795Z,8.96
2023-02-19T17:45:46.915Z,8.58
2023-02-19T17:48:49.635Z,8.69
2023-02-19T17:51:51.880Z,8.50
2023-02-19T17:54:53.798Z,8.23
2023-02-19T17:57:56.456Z,8.14
2023-02-19T18:00:58.728Z,8.10
2023-02-19T18:04:00.910Z,7.81
2023-02-19T18:07:03.211Z,7.42
2023-02-19T18:10:07.479Z,7.26
2023-02-19T18:13:12.086Z,7.14
2023-02-19T18:16:15.719Z,7.05
2023-02-19T18:19:18.064Z,6.86
2023-02-19T18:22:20.888Z,6.91
2023-02-19T18:25:23.533Z,6.62
2023-02-19T18:28:25.700Z,6.58
2023-02-19T18:31:27.929Z,6.71
2023-02-19T18:34:31.584Z,6.67
2023-02-19T18:37:34.030Z,6.68
2023-02-19T18:40:36.791Z,6.79
2023-02-19T18:43:40.051Z,6.72
2023-02-19T18:46:42.234Z,6.80
2023-02-19T18:49:49.030Z,6.67
2023-02-19T18:52:51.763Z,6.49
2023-02-19T18:55:55.031Z,6.36
2023-02-19T18:59:00.023Z,6.32
2023-02-19T19:02:05.076Z,6.33
2023-02-19T19:05:07.189Z,6.05
2023-02-19T19:08:09.606Z,5.99
2023-02-19T19:11:12.101Z,6.03
2023-02-19T19:14:14.491Z,5.89
2023-02-19T19:17:16.724Z,5.71
2023-02-19T19:20:21.330Z,5.76
2023-02-19T19:23:23.500Z,5.76
2023-02-19T19:26:25.705Z,5.70
2023-02-19T19:29:28.094Z,5.59
2023-02-19T19:32:30.100Z,5.59
2023-02-19T19:35:32.262Z,5.47
2023-02-19T19:38:35.207Z,5.29
2023-02-19T19:41:37.481Z,5.26
2023-02-19T19:44:39.676Z,5.31
2023-02-19T19:47:41.957Z,5.08
2023-02-19T19:50:44.227Z,5.30
2023-02-19T19:53:48.010Z,5.12
2023-02-19T19:56:50.957Z,5.08
2023-02-19T19:59:52.914Z,5.18
2023-02-19T20:02:55.025Z,5.17
2023-02-19T20:05:57.490Z,5.13
2023-02-19T20:09:00.330Z,5.17
2023-02-19T20:12:03.208Z,5.20
2023-02-19T20:15:05.268Z,5.14
2023-02-19T20:18:07.403Z,5.14
2023-02-19T20:21:11.009Z,5.06
2023-02-19T20:24:18.846Z,5.17
2023-02-19T20:27:22.675Z,5.20
2023-02-19T20:30:25.281Z,4.95
2023-02-19T20:33:27.413Z,5.23
2023-02-19T20:36:29.566Z,5.15
2023-02-19T20:39:31.935Z,5.16
2023-02-19T20:42:34.140Z,5.10
2023-02-19T20:45:45.911Z,5.02
2023-02-19T20:48:49.447Z,5.08
2023-02-19T20:51:55.427Z,5.01
2023-02-19T20:54:58.419Z,5.01
2023-02-19T20:58:00.591Z,4.84
2023-02-19T21:01:02.835Z,4.89
2023-02-19T21:04:05.237Z,4.59
2023-02-19T21:07:07.449Z,4.80
2023-02-19T21:10:10.100Z,4.60
2023-02-19T21:13:13.418Z,4.75
2023-02-19T21:16:16.067Z,4.66
2023-02-19T21:19:18.246Z,4.69
2023-02-19T21:22:20.316Z,4.57
2023-02-19T21:25:22.263Z,4.36
2023-02-19T21:28:24.874Z,4.45
2023-02-19T21:31:40.184Z,4.41
2023-02-19T21:34:42.483Z,4.49
2023-02-19T21:37:44.511Z,4.48
2023-02-19T21:40:49.438Z,4.59
2023-02-19T21:43:51.548Z,4.39
2023-02-19T21:46:53.572Z,4.60
2023-02-19T21:49:55.489Z,4.43
2023-02-19T21:52:57.341Z,4.50
2023-02-19T21:55:59.540Z,4.54
2023-02-19T21:59:01.676Z,4.30
2023-02-19T22:02:03.540Z,4.29
2023-02-19T22:05:05.862Z,4.14
2023-02-19T22:08:07.924Z,4.07
2023-02-19T22:11:09.901Z,4.23
2023-02-19T22:14:11.753Z,4.03
2023-02-19T22:17:13.697Z,4.06
2023-02-19T22:20:17.344Z,4.00
2023-02-19T22:23:19.550Z,3.96
2023-02-19T22:26:24.455Z,3.82
2023-02-19T22:29:26.515Z,3.82
2023-02-19T22:32:28.477Z,3.75
2023-02-19T22:35:30.470Z,3.56
2023-02-19T22:38:32.555Z,3.23
2023-02-19T22:41:34.603Z,3.35
2023-02-19T22:44:36.589Z,3.12
2023-02-19T22:47:40.027Z,3.23
2023-02-19T22:50:42.273Z,3.22
2023-02-19T22:53:48.043Z,3.16
2023-02-19T22:56:49.872Z,2.99
2023-02-19T22:59:51.811Z,2.88
2023-02-19T23:02:53.903Z,2.96
2023-02-19T23:05:55.818Z,2.88
2023-02-19T23:09:02.430Z,2.73
2023-02-19T23:12:07.045Z,2.84
2023-02-19T23:15:10.809Z,2.92
2023-02-19T23:18:12.688Z,2.86
2023-02-19T23:21:15.700Z,2.70
2023-02-19T23:24:17.778Z,2.95
2023-02-19T23:27:20.123Z,2.92
2023-02-19T23:30:22.910Z,3.03
2023-02-19T23:33:25.140Z,3.02
2023-02-19T23:36:27.418Z,2.91
2023-02-19T23:39:29.404Z,2.95
2023-02-19T23:42:31.954Z,3.27
2023-02-19T23:45:34.221Z,3.21
2023-02-19T23:48:36.140Z,3.38
2023-02-19T23:51:38.182Z,3.30
2023-02-19T23:54:40.629Z,3.50
2023-02-19T23:57:42.626Z,3.50
